Time;durP1;ratioP1;P1;durP2;ratioP2;P2;SDS_P1;SDS_P2;PMS_P1;PMS_P2;Temp;Humidity;BMP_temperature;BMP_pressure;BME280_temperature;BME280_humidity;BME280_pressure;Samples;Min_cycle;Max_cycle;Signal;HPM_P1;HPM_P2
2021/04/21 00:00:23;;;;;;;46.20;29.77;;;;;;;;;;5069065;28;20055;-69
2021/04/21 00:02:50;;;;;;;49.78;30.55;;;;;;;;;;5067884;28;20042;-69
2021/04/21 00:05:16;;;;;;;56.60;35.47;;;;;;;;;;5066991;28;20504;-70
2021/04/21 00:07:42;;;;;;;43.40;28.93;;;;;;;;;;5058942;28;20041;-69
2021/04/21 00:10:09;;;;;;;56.60;33.78;;;;;;;;;;5060961;28;20067;-69
2021/04/21 00:12:35;;;;;;;67.85;39.17;;;;;;;;;;5062218;28;20052;-69
2021/04/21 00:15:02;;;;;;;56.22;33.38;;;;;;;;;;5069032;28;20048;-71
2021/04/21 00:17:29;;;;;;;53.67;32.97;;;;;;;;;;5062490;28;20508;-69
2021/04/21 00:19:57;;;;;;;59.95;37.50;;;;;;;;;;5066989;28;20124;-70
2021/04/21 00:22:24;;;;;;;54.65;32.40;;;;;;;;;;5064187;28;20036;-69
2021/04/21 00:24:51;;;;;;;49.90;30.70;;;;;;;;;;5060626;28;20056;-70
2021/04/21 00:27:19;;;;;;;55.88;29.00;;;;;;;;;;5065023;28;20073;-70
2021/04/21 00:29:47;;;;;;;39.10;24.88;;;;;;;;;;5062745;28;20733;-69
2021/04/21 00:32:14;;;;;;;41.88;26.38;;;;;;;;;;5068438;28;20055;-70
2021/04/21 00:34:42;;;;;;;42.03;25.80;;;;;;;;;;5068459;28;20052;-69
2021/04/21 00:37:08;;;;;;;50.05;30.15;;;;;;;;;;5063475;28;20032;-69
2021/04/21 00:39:35;;;;;;;58.17;31.73;;;;;;;;;;5068547;28;20589;-69
2021/04/21 00:42:01;;;;;;;46.25;27.42;;;;;;;;;;5064634;28;20477;-69
2021/04/21 00:44:40;;;;;;;45.08;28.85;;;;;;;;;;5063556;28;20112;-69
2021/04/21 00:47:12;;;;;;;47.25;28.38;;;;;;;;;;5062977;28;20086;-70
2021/04/21 00:49:38;;;;;;;35.50;24.40;;;;;;;;;;5061287;28;20045;-69
2021/04/21 00:52:12;;;;;;;37.92;25.13;;;;;;;;;;5065144;28;20105;-69
2021/04/21 00:54:49;;;;;;;49.15;30.42;;;;;;;;;;5057573;28;20386;-69
2021/04/21 00:57:18;;;;;;;45.85;29.08;;;;;;;;;;5068864;28;20606;-69
2021/04/21 01:00:04;;;;;;;57.83;30.10;;;;;;;;;;5066848;28;20060;-69
2021/04/21 01:02:37;;;;;;;44.35;27.55;;;;;;;;;;5068566;28;20068;-69
2021/04/21 01:05:09;;;;;;;47.13;27.50;;;;;;;;;;5067468;28;20047;-69
2021/04/21 01:07:37;;;;;;;46.47;28.63;;;;;;;;;;5071271;28;20070;-69
2021/04/21 01:10:04;;;;;;;52.47;31.77;;;;;;;;;;5070468;28;20131;-69
2021/04/21 01:12:33;;;;;;;71.38;38.58;;;;;;;;;;5067977;28;20048;-69
2021/04/21 01:15:00;;;;;;;58.35;33.10;;;;;;;;;;5069205;28;20032;-70
2021/04/21 01:17:26;;;;;;;55.23;34.43;;;;;;;;;;5072150;28;20040;-69
2021/04/21 01:20:03;;;;;;;64.53;34.77;;;;;;;;;;5065196;28;20470;-69
2021/04/21 01:22:51;;;;;;;68.85;38.22;;;;;;;;;;5073230;28;20082;-70
2021/04/21 01:25:25;;;;;;;48.17;28.23;;;;;;;;;;5068626;28;20041;-69
2021/04/21 01:28:02;;;;;;;47.95;29.15;;;;;;;;;;5071332;28;20049;-69
2021/04/21 01:30:30;;;;;;;48.72;28.67;;;;;;;;;;5067403;28;20036;-69
2021/04/21 01:33:01;;;;;;;60.88;34.17;;;;;;;;;;5070796;28;20052;-69
2021/04/21 01:35:28;;;;;;;51.88;31.00;;;;;;;;;;5069665;28;20119;-69
2021/04/21 01:37:57;;;;;;;58.43;31.40;;;;;;;;;;5068604;28;20041;-69
2021/04/21 01:40:28;;;;;;;64.82;31.73;;;;;;;;;;5072405;28;20033;-69
2021/04/21 01:42:55;;;;;;;52.50;31.40;;;;;;;;;;5070397;28;20040;-68
2021/04/21 01:45:26;;;;;;;64.43;34.58;;;;;;;;;;5068624;28;20189;-69
2021/04/21 01:47:53;;;;;;;46.08;29.73;;;;;;;;;;5068057;28;20049;-69
2021/04/21 01:50:19;;;;;;;45.17;28.85;;;;;;;;;;5068248;28;20044;-69
2021/04/21 01:53:10;;;;;;;47.83;29.17;;;;;;;;;;5066336;28;20052;-69
2021/04/21 01:55:42;;;;;;;47.90;26.77;;;;;;;;;;5066029;28;20056;-69
2021/04/21 01:58:16;;;;;;;44.20;26.38;;;;;;;;;;5070245;28;20036;-69
2021/04/21 02:00:45;;;;;;;40.85;24.98;;;;;;;;;;5063732;28;20041;-69
2021/04/21 02:03:21;;;;;;;37.97;25.52;;;;;;;;;;5068564;28;20045;-69
2021/04/21 02:05:53;;;;;;;44.65;26.90;;;;;;;;;;5071406;28;20033;-69
2021/04/21 02:08:31;;;;;;;50.55;30.00;;;;;;;;;;5066318;28;20036;-69
2021/04/21 02:11:12;;;;;;;48.00;28.17;;;;;;;;;;5069064;28;20037;-69
2021/04/21 02:13:55;;;;;;;46.45;28.05;;;;;;;;;;5066656;28;20040;-69
2021/04/21 02:16:24;;;;;;;46.17;27.02;;;;;;;;;;5069183;28;20044;-69
2021/04/21 02:19:05;;;;;;;37.10;22.63;;;;;;;;;;5073002;28;20480;-69
2021/04/21 02:21:36;;;;;;;51.38;27.30;;;;;;;;;;5068459;28;20093;-69
2021/04/21 02:24:05;;;;;;;47.08;28.38;;;;;;;;;;5069257;28;20061;-70
2021/04/21 02:26:39;;;;;;;50.05;31.10;;;;;;;;;;5070961;28;20044;-71
2021/04/21 02:29:14;;;;;;;63.38;33.35;;;;;;;;;;5068423;28;20716;-69
2021/04/21 02:31:49;;;;;;;64.95;35.30;;;;;;;;;;5065904;28;20049;-69
2021/04/21 02:34:31;;;;;;;46.95;29.27;;;;;;;;;;5072689;28;20048;-70
2021/04/21 02:37:15;;;;;;;46.50;27.60;;;;;;;;;;5074118;28;20055;-70
2021/04/21 02:39:41;;;;;;;40.92;26.48;;;;;;;;;;5067686;28;20041;-69
2021/04/21 02:42:07;;;;;;;47.55;28.73;;;;;;;;;;5067997;28;20366;-69
2021/04/21 02:44:48;;;;;;;42.08;27.08;;;;;;;;;;5064956;28;20044;-69
2021/04/21 02:47:30;;;;;;;46.00;28.48;;;;;;;;;;5065501;28;20051;-68
2021/04/21 02:50:05;;;;;;;45.45;29.58;;;;;;;;;;5063881;28;20102;-69
2021/04/21 02:52:49;;;;;;;45.50;29.63;;;;;;;;;;5068573;28;20044;-69
2021/04/21 02:55:34;;;;;;;49.42;29.17;;;;;;;;;;5067770;28;20051;-69
2021/04/21 02:58:18;;;;;;;55.65;32.47;;;;;;;;;;5064593;28;20040;-69
2021/04/21 03:00:44;;;;;;;67.57;35.65;;;;;;;;;;5064304;28;20410;-69
2021/04/21 03:03:13;;;;;;;56.42;31.05;;;;;;;;;;5067475;28;20045;-69
2021/04/21 03:05:46;;;;;;;52.70;30.23;;;;;;;;;;5068762;28;20041;-69
2021/04/21 03:08:25;;;;;;;44.47;27.08;;;;;;;;;;5066970;28;20051;-69
2021/04/21 03:11:08;;;;;;;46.75;27.23;;;;;;;;;;5066518;28;20040;-69
2021/04/21 03:13:36;;;;;;;45.15;25.27;;;;;;;;;;5066154;28;20045;-69
2021/04/21 03:16:02;;;;;;;;;;;;;;;;;;5061448;28;20040;-69
2021/04/21 03:18:30;;;;;;;42.78;26.65;;;;;;;;;;5065584;28;20270;-69
2021/04/21 03:20:56;;;;;;;;;;;;;;;;;;5067619;28;20140;-69
2021/04/21 03:23:22;;;;;;;46.35;26.88;;;;;;;;;;5064476;28;20380;-69
2021/04/21 03:25:52;;;;;;;56.08;29.80;;;;;;;;;;5065433;28;20040;-69
2021/04/21 03:28:20;;;;;;;44.90;28.00;;;;;;;;;;5063643;28;20044;-70
2021/04/21 03:30:48;;;;;;;47.15;27.80;;;;;;;;;;5064393;28;20045;-69
2021/04/21 03:33:20;;;;;;;47.05;27.48;;;;;;;;;;5060246;28;20609;-70
2021/04/21 03:35:48;;;;;;;45.85;26.77;;;;;;;;;;5064698;28;20048;-69
2021/04/21 03:38:14;;;;;;;49.45;27.70;;;;;;;;;;5062519;28;20041;-69
2021/04/21 03:40:40;;;;;;;45.85;27.45;;;;;;;;;;5063481;28;20037;-69
2021/04/21 03:43:06;;;;;;;41.45;24.50;;;;;;;;;;5064723;28;20051;-69
2021/04/21 03:45:33;;;;;;;37.45;24.02;;;;;;;;;;5066978;28;20041;-70
2021/04/21 03:48:00;;;;;;;44.78;26.17;;;;;;;;;;5067272;28;20049;-70
2021/04/21 03:50:26;;;;;;;38.90;24.00;;;;;;;;;;5064384;28;20064;-69
2021/04/21 03:52:58;;;;;;;46.20;28.15;;;;;;;;;;5071550;28;20429;-69
2021/04/21 03:55:24;;;;;;;35.42;23.05;;;;;;;;;;5064178;28;20041;-70
2021/04/21 03:57:52;;;;;;;50.30;28.00;;;;;;;;;;5068610;28;20051;-70
2021/04/21 04:00:20;;;;;;;50.80;29.65;;;;;;;;;;5069027;28;20044;-69
2021/04/21 04:02:50;;;;;;;45.55;27.52;;;;;;;;;;5065507;28;20037;-69
2021/04/21 04:05:17;;;;;;;42.08;26.20;;;;;;;;;;5066140;28;20062;-69
2021/04/21 04:07:44;;;;;;;40.30;25.75;;;;;;;;;;5070918;28;20488;-69
2021/04/21 04:10:13;;;;;;;36.97;24.80;;;;;;;;;;5069353;28;20044;-69
2021/04/21 04:12:40;;;;;;;32.17;22.10;;;;;;;;;;5069876;28;20362;-69
2021/04/21 04:15:07;;;;;;;35.42;22.85;;;;;;;;;;5065633;28;20052;-69
2021/04/21 04:17:35;;;;;;;44.72;27.52;;;;;;;;;;5066125;28;20493;-70
2021/04/21 04:20:01;;;;;;;36.30;23.23;;;;;;;;;;5068526;28;20045;-69
2021/04/21 04:22:30;;;;;;;43.67;26.67;;;;;;;;;;5067478;28;20048;-69
2021/04/21 04:24:56;;;;;;;41.22;26.05;;;;;;;;;;5063963;28;20116;-69
2021/04/21 04:27:24;;;;;;;30.98;21.52;;;;;;;;;;5064004;28;20522;-69
2021/04/21 04:29:51;;;;;;;32.22;23.55;;;;;;;;;;5066615;28;20044;-69
2021/04/21 04:32:18;;;;;;;33.28;24.02;;;;;;;;;;5072156;28;20048;-69
2021/04/21 04:34:48;;;;;;;27.50;19.40;;;;;;;;;;5063518;28;20075;-69
2021/04/21 04:37:15;;;;;;;26.67;19.20;;;;;;;;;;5065072;28;20040;-70
2021/04/21 04:39:41;;;;;;;34.10;25.73;;;;;;;;;;5072547;28;20063;-71
2021/04/21 04:42:07;;;;;;;31.23;23.45;;;;;;;;;;5070522;28;20047;-71
2021/04/21 04:44:40;;;;;;;31.90;22.55;;;;;;;;;;5060651;28;20040;-70
2021/04/21 04:47:11;;;;;;;29.75;22.58;;;;;;;;;;5073155;28;20037;-71
2021/04/21 04:49:43;;;;;;;36.33;25.85;;;;;;;;;;5062469;28;20041;-71
2021/04/21 04:52:09;;;;;;;36.10;24.75;;;;;;;;;;5067291;28;20068;-71
2021/04/21 04:54:37;;;;;;;41.90;27.27;;;;;;;;;;5071662;28;20064;-71
2021/04/21 04:57:04;;;;;;;38.13;24.60;;;;;;;;;;5070478;28;20044;-71
2021/04/21 04:59:31;;;;;;;26.52;20.60;;;;;;;;;;5064957;28;20037;-71
2021/04/21 05:01:58;;;;;;;24.58;18.30;;;;;;;;;;5066127;28;20135;-70
2021/04/21 05:04:38;;;;;;;46.00;29.98;;;;;;;;;;5066367;28;20049;-69
2021/04/21 05:07:06;;;;;;;28.42;21.27;;;;;;;;;;5073455;28;20050;-72
2021/04/21 05:09:34;;;;;;;26.58;20.83;;;;;;;;;;5070885;28;20052;-72
2021/04/21 05:12:01;;;;;;;31.05;24.17;;;;;;;;;;5072426;28;20695;-71
2021/04/21 05:14:27;;;;;;;;;;;;;;;;;;5068663;28;20053;-69
2021/04/21 05:16:56;;;;;;;31.10;23.75;;;;;;;;;;5069172;28;19921;-69
2021/04/21 05:19:29;;;;;;;24.88;19.75;;;;;;;;;;5068053;28;20583;-69
2021/04/21 05:22:13;;;;;;;26.67;20.75;;;;;;;;;;5067579;28;20058;-70
2021/04/21 05:24:58;;;;;;;38.47;27.17;;;;;;;;;;5062457;28;20048;-70
2021/04/21 05:27:26;;;;;;;27.92;21.90;;;;;;;;;;5066812;28;20066;-70
2021/04/21 05:30:11;;;;;;;32.45;26.33;;;;;;;;;;5067515;28;20111;-70
2021/04/21 05:32:56;;;;;;;27.98;20.25;;;;;;;;;;5064214;28;20469;-69
2021/04/21 05:35:40;;;;;;;34.97;26.08;;;;;;;;;;5063568;28;20039;-69
2021/04/21 05:38:24;;;;;;;28.55;23.35;;;;;;;;;;5067598;28;20487;-68
2021/04/21 05:40:53;;;;;;;26.90;21.50;;;;;;;;;;5059351;28;20056;-68
2021/04/21 05:43:38;;;;;;;28.02;22.35;;;;;;;;;;5066511;28;20036;-67
2021/04/21 05:46:16;;;;;;;44.33;31.73;;;;;;;;;;5065979;28;20083;-59
2021/04/21 05:49:01;;;;;;;32.38;25.85;;;;;;;;;;5070383;28;20059;-57
2021/04/21 05:51:46;;;;;;;28.00;22.20;;;;;;;;;;5066333;28;20547;-55
2021/04/21 05:54:31;;;;;;;28.85;23.65;;;;;;;;;;5063880;28;20066;-54
2021/04/21 05:57:16;;;;;;;28.63;23.45;;;;;;;;;;5069208;28;20037;-69
2021/04/21 05:59:42;;;;;;;24.77;20.10;;;;;;;;;;5060688;28;20037;-67
2021/04/21 06:02:10;;;;;;;24.00;20.38;;;;;;;;;;5062577;28;20044;-71
2021/04/21 06:04:37;;;;;;;22.33;18.67;;;;;;;;;;5065063;28;20044;-71
2021/04/21 06:07:07;;;;;;;22.80;18.55;;;;;;;;;;5068634;28;20421;-68
2021/04/21 06:09:33;;;;;;;22.15;17.85;;;;;;;;;;5067757;28;20036;-66
2021/04/21 06:12:10;;;;;;;25.33;17.70;;;;;;;;;;5067828;28;20052;-68
2021/04/21 06:14:37;;;;;;;24.83;19.88;;;;;;;;;;5063564;28;20045;-67
2021/04/21 06:17:03;;;;;;;25.37;19.30;;;;;;;;;;5066253;28;20522;-67
2021/04/21 06:19:29;;;;;;;22.30;17.73;;;;;;;;;;5063866;28;20401;-68
2021/04/21 06:21:55;;;;;;;20.92;17.17;;;;;;;;;;5066364;28;20433;-67
2021/04/21 06:24:24;;;;;;;20.63;18.42;;;;;;;;;;5065399;28;20051;-68
2021/04/21 06:26:50;;;;;;;23.50;17.90;;;;;;;;;;5070631;28;20055;-68
2021/04/21 06:29:16;;;;;;;22.63;18.70;;;;;;;;;;5067244;28;20040;-68
2021/04/21 06:31:43;;;;;;;20.10;16.58;;;;;;;;;;5069880;28;20098;-68
2021/04/21 06:34:11;;;;;;;19.52;16.15;;;;;;;;;;5068440;28;20066;-67
2021/04/21 06:36:42;;;;;;;19.98;15.63;;;;;;;;;;5063927;28;20108;-68
2021/04/21 06:39:08;;;;;;;18.17;15.15;;;;;;;;;;5071464;28;20043;-69
2021/04/21 06:41:35;;;;;;;19.23;15.65;;;;;;;;;;5071843;28;20102;-68
2021/04/21 06:44:01;;;;;;;21.45;15.10;;;;;;;;;;5073377;28;20393;-69
2021/04/21 06:46:27;;;;;;;18.38;13.70;;;;;;;;;;5069597;28;20523;-69
2021/04/21 06:48:55;;;;;;;22.83;14.35;;;;;;;;;;5069254;28;20374;-68
2021/04/21 06:51:22;;;;;;;19.80;13.98;;;;;;;;;;5078518;28;20045;-68
2021/04/21 06:53:51;;;;;;;21.73;13.27;;;;;;;;;;5065816;28;20058;-68
2021/04/21 06:56:17;;;;;;;13.70;11.85;;;;;;;;;;5069610;28;20406;-67
2021/04/21 06:58:43;;;;;;;15.48;12.00;;;;;;;;;;5069310;28;20396;-67
2021/04/21 07:01:28;;;;;;;16.00;12.05;;;;;;;;;;5069601;28;20036;-67
2021/04/21 07:04:11;;;;;;;15.00;11.82;;;;;;;;;;5065008;28;20037;-67
2021/04/21 07:06:38;;;;;;;17.58;12.55;;;;;;;;;;5066407;28;20674;-68
2021/04/21 07:09:10;;;;;;;18.98;13.27;;;;;;;;;;5069686;28;20044;-67
2021/04/21 07:11:36;;;;;;;17.92;13.13;;;;;;;;;;5064290;28;20067;-67
2021/04/21 07:14:03;;;;;;;17.55;12.38;;;;;;;;;;5070156;28;20040;-68
2021/04/21 07:16:29;;;;;;;18.88;12.20;;;;;;;;;;5069019;28;20048;-68
2021/04/21 07:18:59;;;;;;;19.13;13.20;;;;;;;;;;5064474;28;20048;-67
2021/04/21 07:21:28;;;;;;;17.50;11.23;;;;;;;;;;5067832;28;20040;-67
2021/04/21 07:23:56;;;;;;;13.38;10.52;;;;;;;;;;5066640;28;20037;-68
2021/04/21 07:26:29;;;;;;;13.60;10.98;;;;;;;;;;5062442;28;20044;-68
2021/04/21 07:28:55;;;;;;;15.38;10.50;;;;;;;;;;5067267;28;20461;-68
2021/04/21 07:31:21;;;;;;;12.77;9.20;;;;;;;;;;5065534;28;20051;-68
2021/04/21 07:33:49;;;;;;;16.25;9.75;;;;;;;;;;5068967;28;20502;-68
2021/04/21 07:36:17;;;;;;;12.73;9.68;;;;;;;;;;5066333;28;20404;-68
2021/04/21 07:38:43;;;;;;;14.68;9.55;;;;;;;;;;5061868;28;20035;-68
2021/04/21 07:41:10;;;;;;;16.30;9.02;;;;;;;;;;5066527;28;20602;-70
2021/04/21 07:43:44;;;;;;;14.05;8.65;;;;;;;;;;5077173;28;20424;-69
2021/04/21 07:46:15;;;;;;;11.20;8.85;;;;;;;;;;5065423;28;20037;-69
2021/04/21 07:48:42;;;;;;;13.32;9.25;;;;;;;;;;5067411;28;20135;-68
2021/04/21 07:51:16;;;;;;;12.48;8.68;;;;;;;;;;5068768;28;20559;-65
2021/04/21 07:53:49;;;;;;;8.68;7.65;;;;;;;;;;5059345;28;20051;-67
2021/04/21 07:56:16;;;;;;;9.32;7.38;;;;;;;;;;5065148;28;20049;-68
2021/04/21 07:58:42;;;;;;;12.63;7.25;;;;;;;;;;5070113;28;20032;-67
2021/04/21 08:01:09;;;;;;;8.68;7.15;;;;;;;;;;5065226;28;20033;-68
2021/04/21 08:03:36;;;;;;;9.60;7.43;;;;;;;;;;5065950;28;20048;-67
2021/04/21 08:06:02;;;;;;;9.63;6.87;;;;;;;;;;5072632;28;20277;-67
2021/04/21 08:08:29;;;;;;;10.52;7.43;;;;;;;;;;5063920;28;20124;-67
2021/04/21 08:10:56;;;;;;;8.57;6.65;;;;;;;;;;5062959;28;20048;-53
2021/04/21 08:13:40;;;;;;;9.52;7.68;;;;;;;;;;5073911;28;20793;-49
2021/04/21 08:16:20;;;;;;;13.68;7.90;;;;;;;;;;5067342;28;20453;-52
2021/04/21 08:18:46;;;;;;;12.32;6.20;;;;;;;;;;5068922;28;20060;-54
2021/04/21 08:21:12;;;;;;;7.30;6.13;;;;;;;;;;5069573;28;20128;-54
2021/04/21 08:23:38;;;;;;;10.20;6.68;;;;;;;;;;5067594;28;20048;-67
2021/04/21 08:26:05;;;;;;;11.50;6.25;;;;;;;;;;5068664;28;20041;-67
2021/04/21 08:28:32;;;;;;;7.57;5.78;;;;;;;;;;5073262;28;20144;-67
2021/04/21 08:30:58;;;;;;;7.50;5.93;;;;;;;;;;5067007;28;20040;-67
2021/04/21 08:33:26;;;;;;;8.98;5.82;;;;;;;;;;5068120;28;20041;-67
2021/04/21 08:35:52;;;;;;;8.85;6.80;;;;;;;;;;5064006;28;20482;-67
2021/04/21 08:38:18;;;;;;;6.97;6.30;;;;;;;;;;5067211;28;20055;-68
2021/04/21 08:40:44;;;;;;;9.35;6.07;;;;;;;;;;5066334;28;20041;-67
2021/04/21 08:43:10;;;;;;;7.55;6.35;;;;;;;;;;5065129;28;20040;-67
2021/04/21 08:45:36;;;;;;;7.90;7.10;;;;;;;;;;5063682;28;20376;-67
2021/04/21 08:48:03;;;;;;;8.95;7.30;;;;;;;;;;5067143;28;20052;-67
2021/04/21 08:50:31;;;;;;;8.88;7.35;;;;;;;;;;5070522;28;20040;-68
2021/04/21 08:53:01;;;;;;;9.57;6.50;;;;;;;;;;5062060;28;20044;-67
2021/04/21 08:55:28;;;;;;;8.52;6.70;;;;;;;;;;5061305;28;20044;-67
2021/04/21 08:57:55;;;;;;;10.23;8.95;;;;;;;;;;5067668;28;20092;-67
2021/04/21 09:00:21;;;;;;;10.15;7.60;;;;;;;;;;5066919;28;20048;-67
2021/04/21 09:02:47;;;;;;;11.85;7.88;;;;;;;;;;5067435;28;20032;-66
2021/04/21 09:05:14;;;;;;;10.00;8.70;;;;;;;;;;5062267;28;20048;-67
2021/04/21 09:07:40;;;;;;;9.80;8.80;;;;;;;;;;5062457;28;20041;-67
2021/04/21 09:10:07;;;;;;;10.00;8.00;;;;;;;;;;5070847;28;20036;-67
2021/04/21 09:12:33;;;;;;;8.52;7.63;;;;;;;;;;5063071;28;20044;-68
2021/04/21 09:14:59;;;;;;;25.48;8.88;;;;;;;;;;5066918;28;20045;-57
2021/04/21 09:17:25;;;;;;;9.32;7.32;;;;;;;;;;5071985;28;20041;-60
2021/04/21 09:19:51;;;;;;;32.00;9.53;;;;;;;;;;5066327;28;20059;-67
2021/04/21 09:22:17;;;;;;;9.80;8.82;;;;;;;;;;5064591;28;20286;-67
2021/04/21 09:24:43;;;;;;;12.23;9.52;;;;;;;;;;5070334;28;20035;-67
2021/04/21 09:27:23;;;;;;;10.90;8.13;;;;;;;;;;5064882;28;20403;-67
2021/04/21 09:29:49;;;;;;;9.55;8.55;;;;;;;;;;5066831;28;20641;-67
2021/04/21 09:32:16;;;;;;;26.27;8.33;;;;;;;;;;5063409;28;20051;-69
2021/04/21 09:34:58;;;;;;;10.15;8.93;;;;;;;;;;5067367;28;20281;-68
2021/04/21 09:37:25;;;;;;;11.27;9.17;;;;;;;;;;5068185;28;20041;-69
2021/04/21 09:39:51;;;;;;;;;;;;;;;;;;5060730;28;20049;-68
2021/04/21 09:42:24;;;;;;;9.20;8.27;;;;;;;;;;5072576;28;19959;-68
2021/04/21 09:44:51;;;;;;;8.50;7.70;;;;;;;;;;5069030;28;20096;-68
2021/04/21 09:47:19;;;;;;;8.55;7.65;;;;;;;;;;5072772;28;20063;-68
2021/04/21 09:49:45;;;;;;;9.20;7.70;;;;;;;;;;5067591;28;20044;-68
2021/04/21 09:52:11;;;;;;;9.68;7.57;;;;;;;;;;5070299;28;20051;-69
2021/04/21 09:54:40;;;;;;;8.68;7.90;;;;;;;;;;5074813;28;20466;-68
2021/04/21 09:57:15;;;;;;;9.07;8.18;;;;;;;;;;5069912;28;20109;-68
2021/04/21 10:00:02;;;;;;;8.02;7.32;;;;;;;;;;5065936;28;20061;-68
2021/04/21 10:02:39;;;;;;;8.82;7.70;;;;;;;;;;5065738;28;20060;-68
2021/04/21 10:05:41;;;;;;;10.43;8.17;;;;;;;;;;5071987;28;20127;-68
2021/04/21 10:08:22;;;;;;;9.65;7.97;;;;;;;;;;5015567;28;20045;-68
2021/04/21 10:11:01;;;;;;;10.38;7.68;;;;;;;;;;5062505;28;20055;-68
2021/04/21 10:13:41;;;;;;;7.78;6.97;;;;;;;;;;5069881;28;20041;-68
2021/04/21 10:16:07;;;;;;;8.70;7.78;;;;;;;;;;5069449;28;20045;-69
2021/04/21 10:18:34;;;;;;;8.45;6.95;;;;;;;;;;5069189;28;20040;-68
2021/04/21 10:21:00;;;;;;;9.10;7.57;;;;;;;;;;5070962;28;20120;-69
2021/04/21 10:23:26;;;;;;;8.10;7.30;;;;;;;;;;5070736;28;20041;-69
2021/04/21 10:25:52;;;;;;;;;;;;;;;;;;5085549;28;20048;-69
2021/04/21 10:28:22;;;;;;;8.00;6.78;;;;;;;;;;5066468;28;19966;-69
2021/04/21 10:30:49;;;;;;;8.55;7.75;;;;;;;;;;5058603;28;20044;-68
2021/04/21 10:33:15;;;;;;;7.85;7.05;;;;;;;;;;5069640;28;20065;-68
2021/04/21 10:35:40;;;;;;;;;;;;;;;;;;5066397;28;20048;-68
2021/04/21 10:38:12;;;;;;;7.75;6.95;;;;;;;;;;5068610;28;20283;-69
2021/04/21 10:40:38;;;;;;;8.98;7.55;;;;;;;;;;5064078;28;20480;-67
2021/04/21 10:43:06;;;;;;;;;;;;;;;;;;5067773;28;20044;-68
2021/04/21 10:45:32;;;;;;;7.40;6.70;;;;;;;;;;5071207;28;19936;-67
2021/04/21 10:47:59;;;;;;;8.00;7.20;;;;;;;;;;5058800;28;20075;-61
2021/04/21 10:50:36;;;;;;;11.32;7.60;;;;;;;;;;5059022;28;20086;-57
2021/04/21 10:53:03;;;;;;;10.00;8.38;;;;;;;;;;5067679;28;20049;-68
2021/04/21 10:55:29;;;;;;;9.57;8.68;;;;;;;;;;5068007;28;20050;-68
2021/04/21 10:57:56;;;;;;;11.30;8.40;;;;;;;;;;5066539;28;20040;-67
2021/04/21 11:00:26;;;;;;;12.95;9.07;;;;;;;;;;5056739;28;20041;-67
2021/04/21 11:02:59;;;;;;;9.70;8.68;;;;;;;;;;5068016;28;20037;-67
2021/04/21 11:05:29;;;;;;;10.43;8.75;;;;;;;;;;5068887;28;20036;-68
2021/04/21 11:07:55;;;;;;;11.07;9.52;;;;;;;;;;5060558;28;20056;-66
2021/04/21 11:10:32;;;;;;;11.93;8.70;;;;;;;;;;5071945;28;20086;-66
2021/04/21 11:13:02;;;;;;;12.50;8.90;;;;;;;;;;5068154;28;20477;-69
2021/04/21 11:15:37;;;;;;;8.90;8.00;;;;;;;;;;5063750;28;20047;-68
2021/04/21 11:18:12;;;;;;;9.90;8.55;;;;;;;;;;5069785;28;20546;-65
2021/04/21 11:20:41;;;;;;;8.98;7.72;;;;;;;;;;5072721;28;20361;-66
2021/04/21 11:23:27;;;;;;;9.80;8.77;;;;;;;;;;5071827;28;20111;-68
2021/04/21 11:25:53;;;;;;;11.25;9.90;;;;;;;;;;5055723;28;20041;-68
2021/04/21 11:28:38;;;;;;;13.20;9.48;;;;;;;;;;5073393;28;20076;-69
2021/04/21 11:31:06;;;;;;;12.48;10.57;;;;;;;;;;5063459;28;20123;-68
2021/04/21 11:33:50;;;;;;;12.50;9.52;;;;;;;;;;5066495;28;20119;-66
2021/04/21 11:36:36;;;;;;;12.85;10.25;;;;;;;;;;5062033;28;20029;-68
2021/04/21 11:39:03;;;;;;;12.65;11.35;;;;;;;;;;5066511;28;20489;-68
2021/04/21 11:41:43;;;;;;;16.10;10.80;;;;;;;;;;5067188;28;20051;-69
2021/04/21 11:44:10;;;;;;;13.35;10.30;;;;;;;;;;5066442;28;20067;-69
2021/04/21 11:46:55;;;;;;;12.13;10.83;;;;;;;;;;5071842;28;20844;-69
2021/04/21 11:49:40;;;;;;;11.52;10.27;;;;;;;;;;5065769;28;20784;-69
2021/04/21 11:52:07;;;;;;;14.10;10.30;;;;;;;;;;5066771;28;20036;-69
2021/04/21 11:54:37;;;;;;;15.82;10.45;;;;;;;;;;5070119;28;20049;-68
2021/04/21 11:57:03;;;;;;;11.30;9.82;;;;;;;;;;5064529;28;20511;-70
2021/04/21 11:59:29;;;;;;;13.30;10.00;;;;;;;;;;5061826;28;20040;-68
2021/04/21 12:01:55;;;;;;;11.15;9.95;;;;;;;;;;5066554;28;20507;-61
2021/04/21 12:04:21;;;;;;;12.07;10.60;;;;;;;;;;5067274;28;20700;-62
2021/04/21 12:06:48;;;;;;;11.60;10.05;;;;;;;;;;5064839;28;20056;-70
2021/04/21 12:09:14;;;;;;;12.15;9.40;;;;;;;;;;5066967;28;20485;-69
2021/04/21 12:11:40;;;;;;;10.20;9.23;;;;;;;;;;5074971;28;20425;-70
2021/04/21 12:14:06;;;;;;;9.93;8.90;;;;;;;;;;5059503;28;20052;-67
2021/04/21 12:16:33;;;;;;;11.60;8.95;;;;;;;;;;5061698;28;20050;-68
2021/04/21 12:18:59;;;;;;;8.82;8.00;;;;;;;;;;5065393;28;20039;-68
2021/04/21 12:21:30;;;;;;;9.55;7.95;;;;;;;;;;5063878;28;20044;-68
2021/04/21 12:23:59;;;;;;;10.68;7.80;;;;;;;;;;5060857;28;20427;-67
2021/04/21 12:26:29;;;;;;;9.00;8.10;;;;;;;;;;5065359;28;20043;-68
2021/04/21 12:28:57;;;;;;;9.15;8.23;;;;;;;;;;5063502;28;20052;-68
2021/04/21 12:31:23;;;;;;;7.85;7.07;;;;;;;;;;5066203;28;20037;-68
2021/04/21 12:33:51;;;;;;;7.78;7.07;;;;;;;;;;5060403;28;20051;-68
2021/04/21 12:36:24;;;;;;;8.20;6.38;;;;;;;;;;5067257;28;20055;-68
2021/04/21 12:39:01;;;;;;;7.00;6.30;;;;;;;;;;5069023;28;20628;-68
2021/04/21 12:41:27;;;;;;;7.10;6.38;;;;;;;;;;5066802;28;20068;-68
2021/04/21 12:43:54;;;;;;;7.32;6.45;;;;;;;;;;5068398;28;20106;-67
2021/04/21 12:46:23;;;;;;;6.25;5.43;;;;;;;;;;5066505;28;20054;-67
2021/04/21 12:49:09;;;;;;;7.45;6.20;;;;;;;;;;5065308;28;20460;-68
2021/04/21 12:51:35;;;;;;;16.50;6.70;;;;;;;;;;5069328;28;20112;-67
2021/04/21 12:54:02;;;;;;;16.67;5.78;;;;;;;;;;5074782;28;21232;-68
2021/04/21 12:56:38;;;;;;;6.47;5.22;;;;;;;;;;5067899;28;20051;-68
2021/04/21 12:59:17;;;;;;;5.10;4.70;;;;;;;;;;5073369;28;20484;-69
2021/04/21 13:01:44;;;;;;;5.30;4.50;;;;;;;;;;5074938;28;20078;-68
2021/04/21 13:04:12;;;;;;;6.03;4.70;;;;;;;;;;5075459;28;20040;-68
2021/04/21 13:06:40;;;;;;;6.72;4.70;;;;;;;;;;5069718;28;20033;-69
2021/04/21 13:09:10;;;;;;;5.65;4.20;;;;;;;;;;5069138;28;20052;-69
2021/04/21 13:11:37;;;;;;;5.82;4.15;;;;;;;;;;5071439;28;20052;-69
2021/04/21 13:14:04;;;;;;;5.60;5.00;;;;;;;;;;5066202;28;20049;-69
2021/04/21 13:16:37;;;;;;;8.35;4.90;;;;;;;;;;5073555;28;20035;-69
2021/04/21 13:19:23;;;;;;;5.15;4.65;;;;;;;;;;5067089;28;20139;-69
2021/04/21 13:22:00;;;;;;;5.23;4.53;;;;;;;;;;5069273;28;20060;-69
2021/04/21 13:24:26;;;;;;;;;;;;;;;;;;5069543;28;20048;-68
2021/04/21 13:26:53;;;;;;;6.10;4.80;;;;;;;;;;5073047;28;19925;-69
2021/04/21 13:29:35;;;;;;;5.40;4.82;;;;;;;;;;5070074;28;20048;-68
2021/04/21 13:32:05;;;;;;;45.13;6.15;;;;;;;;;;5067491;28;20128;-69
2021/04/21 13:34:31;;;;;;;6.25;4.05;;;;;;;;;;5073439;28;20048;-69
2021/04/21 13:36:57;;;;;;;;;;;;;;;;;;5069099;28;20051;-68
2021/04/21 13:39:23;;;;;;;5.60;4.40;;;;;;;;;;5068487;28;19951;-69
2021/04/21 13:41:49;;;;;;;8.07;4.13;;;;;;;;;;5073704;28;20040;-70
2021/04/21 13:44:19;;;;;;;4.55;4.13;;;;;;;;;;5074686;28;20063;-68
2021/04/21 13:46:45;;;;;;;5.75;4.18;;;;;;;;;;5079728;28;20115;-69
2021/04/21 13:49:11;;;;;;;;;;;;;;;;;;5085081;28;20552;-68
2021/04/21 13:51:37;;;;;;;7.05;6.35;;;;;;;;;;5072591;28;20006;-69
2021/04/21 13:54:03;;;;;;;7.22;5.25;;;;;;;;;;5070658;28;20040;-69
2021/04/21 13:56:29;;;;;;;8.73;7.53;;;;;;;;;;5075264;28;20036;-69
2021/04/21 13:59:00;;;;;;;9.48;8.43;;;;;;;;;;5073748;28;20587;-69
2021/04/21 14:01:26;;;;;;;8.13;7.32;;;;;;;;;;5070303;28;20048;-69
2021/04/21 14:03:52;;;;;;;8.48;6.82;;;;;;;;;;5070223;28;20051;-68
2021/04/21 14:06:21;;;;;;;12.63;7.38;;;;;;;;;;5074225;28;20037;-68
2021/04/21 14:08:47;;;;;;;9.73;8.25;;;;;;;;;;5069261;28;20172;-69
2021/04/21 14:11:15;;;;;;;9.52;8.20;;;;;;;;;;5072124;28;20036;-69
2021/04/21 14:13:41;;;;;;;9.95;6.80;;;;;;;;;;5073438;28;20051;-69
2021/04/21 14:16:07;;;;;;;7.97;6.13;;;;;;;;;;5067542;28;20053;-69
2021/04/21 14:18:33;;;;;;;12.68;6.68;;;;;;;;;;5069924;28;20156;-70
2021/04/21 14:20:59;;;;;;;15.13;6.00;;;;;;;;;;5071309;28;20041;-70
2021/04/21 14:23:25;;;;;;;7.90;6.32;;;;;;;;;;5064770;28;20040;-69
2021/04/21 14:25:52;;;;;;;9.63;6.47;;;;;;;;;;5065987;28;20077;-69
2021/04/21 14:28:18;;;;;;;10.60;5.97;;;;;;;;;;5071213;28;20420;-69
2021/04/21 14:30:44;;;;;;;5.45;4.95;;;;;;;;;;5070326;28;20047;-70
2021/04/21 14:33:10;;;;;;;7.22;5.20;;;;;;;;;;5066102;28;20068;-70
2021/04/21 14:35:38;;;;;;;8.00;5.18;;;;;;;;;;5067522;28;20056;-70
2021/04/21 14:38:04;;;;;;;5.35;4.85;;;;;;;;;;5067068;28;20552;-69
2021/04/21 14:40:30;;;;;;;6.35;5.68;;;;;;;;;;5068671;28;20044;-69
2021/04/21 14:42:56;;;;;;;8.02;6.40;;;;;;;;;;5069186;28;21082;-68
2021/04/21 14:45:22;;;;;;;7.70;6.80;;;;;;;;;;5068308;28;20091;-69
2021/04/21 14:47:48;;;;;;;9.13;6.47;;;;;;;;;;5063194;28;20044;-70